OXF weather

Oxford (Kidlington) Airport
Kidlington, England, United Kingdom

Public forecast

Using degrees Celsius for public forecast. Weather courtesy of forecast.io.

Current aviation weather report (METAR) for Oxford (Kidlington) Airport

Report is more than 6 hours old.

Retrieved 2019/10/18 18:20 UTC (7 hours ago):

EGTK 181820Z 21014KT 9999 FEW027 11/08 Q0997

Closest aviation forecast (TAF) to Oxford (Kidlington) Airport

Closest forecast is RAF Brize Norton, 11.1 nm (20.5 km) WSW. Retrieved 2019-10-19 03:00 UTC (0 seconds ago):

TAF EGVN 190131Z 1903/2003 22005KT 9999 FEW025 PROB30 TEMPO 1903/1908 SCT008 PROB30 TEMPO 1911/1916 5000 SHRA SCT024CB PROB40 1922/2003 4000 BR